Hlavní strana
METAR-TAF:

METAR-TAF

Letiště :

Lake City, Florida, Spojené státy americké

zeměpisná šířka: 30-10-55N, zeměpisná délka: 082-34-37W, výška: 61 m

Aktuální stav počasí

Zpráva byla vytvořena před 8 minutami, v 11:35 UTC
Bezvětří
Teplota 17°C
Vlhkost vzduchu 100%
Tlak 1022 hPa
Viditelnost: 11.3 km
Jasno

METAR: KLCQ 241135Z AUTO 00000KT 7SM CLR 17/17 A3017 RMK AO2

Čas: 07:43 (11:43 UTC)


TAF: chybějící

Stav a předpovědi počasí z více než 4 000 letišť (zprávy METAR a TAF).

Červené a žluté tečky na mapě představují dostupné meteorologické stanice.

Když kurzor umístíte na tečku, zobrazí se název stanice.

Pak kliknutím zobrazíte stav a předpověď počasí.

Chcete-li změnit mapu, kliknutím na zelené tlačítko se znaménkem +mapu přiblížíte, kliknutím na zelené tlačítko se znaménkem – mapu oddálíte a kliknutím na zelené šipky přejdete na sousední mapy.


METAR-TAF: